Danville Regional Airport
KDAN : now visible

Airfield :











YOU CAN JOIN US ON...

 
LOGIN :

Register | Disclaimer

   EN    FR    IT 

 









Legend :    VFR   Marginal VFR   IFR   Intensive IFR   Very Intensive IFR
Visi :
Ceiling :
>= 8 km
>= 3000ft
5 to 8 km
1000 to 3000 ft
1500m to 5 km
500 to 1000 ft
800 to 1500m
200 to 500 ft
< 800m
< 200 ft
Symbols :   Thunderstorms  Fog  Heavy snow  Heavy precipitations  Wind > 20 kt






- Airport Elevation : 571 ft
- IATA code : DAN


KDAN - Danville Regional

CURRENT METAR :
  • 251853Z AUTO 03008KT 8SM OVC005 11/09 A3010 RMK AO2 SLP186 T01060089

EXPIRED METARs :
  • 251753Z AUTO 02010KT 9SM OVC007 11/09 A3011 RMK AO2 SLP190 60011 T01110094 10117 20111 58006
  • 251653Z AUTO 03010KT 10SM OVC007 11/09 A3013 RMK AO2 SLP195 T01110094

TAF KDAN
Valid from the 25 at 18:00 until the 26 at 18:00 UTC


251720Z 2518/2618 04008KT 6SM -DZ BR OVC007
TEMPO 2518/2519 4SM -RA BR OVC002
FM260000 04006KT 6SM -DZ BR OVC004
FM261000 03004KT 5SM -DZ BR OVC005
FM261500 VRB03KT P6SM BKN015
KZDC FIR / North America



MET'MAP, your aeronautical weather chart ! - Copyright ORBIFLY December 2007 - Disclaimer

ORBIFLY MET'MAP TEAM :

Programming & Development : Alexandra Zaïnal
Concept & original design : Baudouin d'Aumeries
Assistance for programming : Marc-Olivier Méhu
Technical & hardware support : Manuel Goepfert

Contact : metmap@orbifly.com




SOURCES & CREDITS :

   NOAA       Earth
Advisory